Bavaria

Go HERE for most recent data if this page is not up to date.

Jump to table bottom
Date Time Temp F RH % AVG Wind Max Wind Wind Dir 24 Snow Depth
*12/01/22 17 17.1 87 22 39 SW - 221 0.2 43.2
*12/01/22 16 17.5 86 20 33 SW - 240 0.2 42.9
*12/01/22 15 18.0 81 17 29 W - 253 0.2 43.1
*12/01/22 14 17.7 84 14 29 SW - 231 0.2 43.2
*12/01/22 13 17.5 86 17 32 W - 256 0.2 43.3
*12/01/22 12 16.6 88 16 32 SW - 238 0.2 43.7
*12/01/22 11 16.9 86 19 32 SW - 237 0.2 44.0
*12/01/22 10 16.1 88 21 31 SW - 243 0.2 43.8
*12/01/22 09 16.4 86 22 35 SW - 243 0.2 43.8
*12/01/22 08 16.3 88 20 30 SW - 243 0.2 43.0
*12/01/22 07 16.5 88 20 29 W - 252 0.2 43.0
*12/01/22 06 16.6 87 18 28 SW - 226 0.2 43.2
*12/01/22 05 16.3 88 16 26 SW - 223 0.2 43.8
*12/01/22 04 15.8 88 18 29 W - 251 0.2 43.0
*12/01/22 03 16.1 83 19 30 SW - 229 0.2 143.3
*12/01/22 02 15.0 87 19 26 SW - 223 0.2 42.8
*12/01/22 01 15.6 81 15 23 SW - 205 0.2 42.3
*12/01/22 00 15.8 78 16 22 SW - 228 0.2 42.2
*11/30/22 23 15.9 76 15 20 SW - 221 0.2 42.0
*11/30/22 22 15.1 76 17 24 SW - 230 0.2 42.1
*11/30/22 21 15.5 79 18 27 W - 263 0.2 42.3
*11/30/22 20 17.2 78 17 24 W - 251 0.2 42.3
*11/30/22 19 15.5 84 18 23 SW - 227 0.2 143.3
*11/30/22 18 15.1 86 17 23 W - 248 0.2 143.3
*11/30/22 17 15.0 86 14 22 W - 269 0.2 143.3
*11/30/22 16 14.9 84 14 20 SW - 241 0.2 143.3
*11/30/22 15 14.4 84 14 19 SW - 243 3.4 143.3
*11/30/22 14 13.9 83 13 19 W - 251 3.4 143.3
*11/30/22 13 12.4 84 12 20 SW - 218 3.5 143.3
*11/30/22 12 10.8 85 10 21 SW - 228 3.3 42.4
*11/30/22 11 9.5 84 10 18 SW - 245 3.3 143.3
*11/30/22 10 8.4 83 7 15 W - 265 3.7 42.8
*11/30/22 09 8.4 84 7 19 SW - 230 3.6 42.6
*11/30/22 08 7.5 83 7 16 SW - 214 0.0 40.0
*11/30/22 07 7.8 82 7 19 W - 278 0.7 143.3
*11/30/22 06 7.7 80 8 16 SW - 225 0.2 37.1
*11/30/22 05 5.8 81 9 16 W - 288 0.2 37.5
*11/30/22 04 5.2 70 9 15 S - 198 0.3 37.9
*11/30/22 03 2.4 73 9 17 S - 196 0.3 37.7
*11/30/22 02 1.0 73 7 16 SW - 245 0.3 37.6
*11/30/22 01 -0.2 79 5 15 W - 275 0.3 37.9
*11/30/22 00 -0.7 78 9 18 SW - 210 0.3 37.8
.